sensor_id;sensor_type;location;lat;lon;timestamp;pressure;altitude;pressure_sealevel;temperature;humidity
54592;BME280;40488;48.558;18.150;2023-09-18T00:00:38;99764.59;;;19.06;79.24
54592;BME280;40488;48.558;18.150;2023-09-18T00:03:06;99768.06;;;19.05;79.39
54592;BME280;40488;48.558;18.150;2023-09-18T00:05:35;99758.47;;;19.09;79.27
54592;BME280;40488;48.558;18.150;2023-09-18T00:08:06;99766.25;;;19.09;79.38
54592;BME280;40488;48.558;18.150;2023-09-18T00:10:35;99770.66;;;19.05;79.42
54592;BME280;40488;48.558;18.150;2023-09-18T00:13:04;99765.78;;;18.98;79.52
54592;BME280;40488;48.558;18.150;2023-09-18T00:15:33;99770.94;;;18.98;79.75
54592;BME280;40488;48.558;18.150;2023-09-18T00:18:02;99763.13;;;18.99;79.83
54592;BME280;40488;48.558;18.150;2023-09-18T00:20:31;99765.56;;;19.04;79.86
54592;BME280;40488;48.558;18.150;2023-09-18T00:23:00;99760.47;;;19.01;79.75
54592;BME280;40488;48.558;18.150;2023-09-18T00:25:31;99762.19;;;19.02;79.87
54592;BME280;40488;48.558;18.150;2023-09-18T00:28:01;99761.31;;;19.01;79.79
54592;BME280;40488;48.558;18.150;2023-09-18T00:30:30;99762.13;;;19.03;79.84
54592;BME280;40488;48.558;18.150;2023-09-18T00:32:59;99759.50;;;19.05;79.83
54592;BME280;40488;48.558;18.150;2023-09-18T00:35:28;99757.63;;;19.08;79.94
54592;BME280;40488;48.558;18.150;2023-09-18T00:37:57;99756.75;;;19.09;79.75
54592;BME280;40488;48.558;18.150;2023-09-18T00:40:26;99763.72;;;19.07;79.87
54592;BME280;40488;48.558;18.150;2023-09-18T00:42:56;99755.84;;;19.10;80.11
54592;BME280;40488;48.558;18.150;2023-09-18T00:45:25;99757.53;;;19.11;80.01
54592;BME280;40488;48.558;18.150;2023-09-18T00:47:54;99758.38;;;19.12;80.17
54592;BME280;40488;48.558;18.150;2023-09-18T00:50:23;99755.84;;;19.10;80.10
54592;BME280;40488;48.558;18.150;2023-09-18T00:52:54;99751.41;;;19.14;80.10
54592;BME280;40488;48.558;18.150;2023-09-18T00:55:24;99756.69;;;19.11;79.89
54592;BME280;40488;48.558;18.150;2023-09-18T00:57:56;99754.25;;;19.06;79.99
54592;BME280;40488;48.558;18.150;2023-09-18T01:00:25;99759.66;;;19.00;80.09
54592;BME280;40488;48.558;18.150;2023-09-18T01:02:54;99757.06;;;19.00;80.21
54592;BME280;40488;48.558;18.150;2023-09-18T01:05:23;99752.56;;;19.05;80.11
54592;BME280;40488;48.558;18.150;2023-09-18T01:07:52;99756.94;;;19.03;79.86
54592;BME280;40488;48.558;18.150;2023-09-18T01:10:22;99755.44;;;18.98;79.98
54592;BME280;40488;48.558;18.150;2023-09-18T01:13:04;99757.19;;;18.96;80.06
54592;BME280;40488;48.558;18.150;2023-09-18T01:15:38;99746.97;;;18.93;80.32
54592;BME280;40488;48.558;18.150;2023-09-18T01:18:11;99749.66;;;18.90;80.34
54592;BME280;40488;48.558;18.150;2023-09-18T01:20:41;99744.47;;;18.90;80.32
54592;BME280;40488;48.558;18.150;2023-09-18T01:23:11;99747.06;;;18.90;80.42
54592;BME280;40488;48.558;18.150;2023-09-18T01:25:41;99748.00;;;18.87;80.26
54592;BME280;40488;48.558;18.150;2023-09-18T01:28:10;99750.66;;;18.86;80.57
54592;BME280;40488;48.558;18.150;2023-09-18T01:30:39;99744.63;;;18.85;80.42
54592;BME280;40488;48.558;18.150;2023-09-18T01:33:10;99737.75;;;18.84;80.50
54592;BME280;40488;48.558;18.150;2023-09-18T01:35:40;99747.38;;;18.81;80.55
54592;BME280;40488;48.558;18.150;2023-09-18T01:38:10;99746.63;;;18.77;80.60
54592;BME280;40488;48.558;18.150;2023-09-18T01:40:40;99738.00;;;18.77;80.76
54592;BME280;40488;48.558;18.150;2023-09-18T01:43:10;99742.31;;;18.78;80.64
54592;BME280;40488;48.558;18.150;2023-09-18T01:45:39;99742.31;;;18.78;80.59
54592;BME280;40488;48.558;18.150;2023-09-18T01:48:09;99744.28;;;18.69;80.86
54592;BME280;40488;48.558;18.150;2023-09-18T01:50:38;99738.47;;;18.63;80.98
54592;BME280;40488;48.558;18.150;2023-09-18T01:53:08;99731.75;;;18.57;81.30
54592;BME280;40488;48.558;18.150;2023-09-18T01:55:40;99735.88;;;18.63;81.38
54592;BME280;40488;48.558;18.150;2023-09-18T01:58:10;99735.94;;;18.61;81.27
54592;BME280;40488;48.558;18.150;2023-09-18T02:00:43;99732.66;;;18.56;81.31
54592;BME280;40488;48.558;18.150;2023-09-18T02:03:13;99738.63;;;18.58;81.39
54592;BME280;40488;48.558;18.150;2023-09-18T02:06:05;99740.34;;;18.58;81.46
54592;BME280;40488;48.558;18.150;2023-09-18T02:08:35;99744.78;;;18.54;81.52
54592;BME280;40488;48.558;18.150;2023-09-18T02:11:05;99737.91;;;18.53;81.63
54592;BME280;40488;48.558;18.150;2023-09-18T02:13:34;99731.75;;;18.57;81.47
54592;BME280;40488;48.558;18.150;2023-09-18T02:16:03;99732.66;;;18.56;81.56
54592;BME280;40488;48.558;18.150;2023-09-18T02:18:32;99732.75;;;18.53;81.56
54592;BME280;40488;48.558;18.150;2023-09-18T02:21:01;99731.88;;;18.54;81.61
54592;BME280;40488;48.558;18.150;2023-09-18T02:23:30;99724.13;;;18.54;81.37
54592;BME280;40488;48.558;18.150;2023-09-18T02:25:59;99729.38;;;18.51;81.57
54592;BME280;40488;48.558;18.150;2023-09-18T02:28:33;99726.72;;;18.53;81.47
54592;BME280;40488;48.558;18.150;2023-09-18T02:31:01;99721.63;;;18.51;81.41
54592;BME280;40488;48.558;18.150;2023-09-18T02:33:30;99717.44;;;18.47;81.35
54592;BME280;40488;48.558;18.150;2023-09-18T02:35:59;99719.34;;;18.41;81.36
54592;BME280;40488;48.558;18.150;2023-09-18T02:38:29;99721.28;;;18.34;81.54
54592;BME280;40488;48.558;18.150;2023-09-18T02:41:00;99713.59;;;18.33;81.79
54592;BME280;40488;48.558;18.150;2023-09-18T02:43:29;99712.81;;;18.29;81.86
54592;BME280;40488;48.558;18.150;2023-09-18T02:45:59;99717.91;;;18.32;81.83
54592;BME280;40488;48.558;18.150;2023-09-18T02:48:29;99719.78;;;18.27;81.83
54592;BME280;40488;48.558;18.150;2023-09-18T02:50:58;99715.41;;;18.29;81.76
54592;BME280;40488;48.558;18.150;2023-09-18T02:53:30;99714.78;;;18.21;81.70
54592;BME280;40488;48.558;18.150;2023-09-18T02:55:59;99714.13;;;18.15;82.02
54592;BME280;40488;48.558;18.150;2023-09-18T02:58:28;99721.94;;;18.13;82.18
54592;BME280;40488;48.558;18.150;2023-09-18T03:00:59;99727.41;;;18.04;82.34
54592;BME280;40488;48.558;18.150;2023-09-18T03:03:30;99725.97;;;17.94;82.63
54592;BME280;40488;48.558;18.150;2023-09-18T03:06:03;99729.16;;;18.02;82.73
54592;BME280;40488;48.558;18.150;2023-09-18T03:08:33;99723.91;;;18.05;82.75
54592;BME280;40488;48.558;18.150;2023-09-18T03:11:10;99723.13;;;18.03;82.89
54592;BME280;40488;48.558;18.150;2023-09-18T03:13:43;99712.56;;;18.11;82.96
54592;BME280;40488;48.558;18.150;2023-09-18T03:16:17;99709.75;;;18.18;82.94
54592;BME280;40488;48.558;18.150;2023-09-18T03:18:47;99707.94;;;18.20;82.78
54592;BME280;40488;48.558;18.150;2023-09-18T03:21:16;99701.84;;;18.23;82.61
54592;BME280;40488;48.558;18.150;2023-09-18T03:23:45;99702.72;;;18.22;82.59
54592;BME280;40488;48.558;18.150;2023-09-18T03:26:14;99696.13;;;18.13;82.41
54592;BME280;40488;48.558;18.150;2023-09-18T03:28:43;99698.00;;;18.08;82.78
54592;BME280;40488;48.558;18.150;2023-09-18T03:31:12;99703.88;;;18.12;82.93
54592;BME280;40488;48.558;18.150;2023-09-18T03:33:42;99700.34;;;18.16;82.79
54592;BME280;40488;48.558;18.150;2023-09-18T03:36:11;99693.44;;;18.16;82.88
54592;BME280;40488;48.558;18.150;2023-09-18T03:38:41;99694.13;;;18.21;82.71
54592;BME280;40488;48.558;18.150;2023-09-18T03:41:10;99696.69;;;18.21;82.60
54592;BME280;40488;48.558;18.150;2023-09-18T03:43:39;99694.13;;;18.21;82.54
54592;BME280;40488;48.558;18.150;2023-09-18T03:46:08;99696.03;;;18.16;82.64
54592;BME280;40488;48.558;18.150;2023-09-18T03:48:46;99686.56;;;18.15;82.60
54592;BME280;40488;48.558;18.150;2023-09-18T03:51:15;99684.84;;;18.16;82.71
54592;BME280;40488;48.558;18.150;2023-09-18T03:53:45;99685.94;;;18.08;82.48
54592;BME280;40488;48.558;18.150;2023-09-18T03:56:15;99686.88;;;18.04;82.75
54592;BME280;40488;48.558;18.150;2023-09-18T03:58:44;99683.50;;;18.04;82.71
54592;BME280;40488;48.558;18.150;2023-09-18T04:01:17;99677.50;;;18.02;82.70
54592;BME280;40488;48.558;18.150;2023-09-18T04:03:47;99673.94;;;18.06;82.93
54592;BME280;40488;48.558;18.150;2023-09-18T04:06:16;99679.03;;;18.09;82.83
54592;BME280;40488;48.558;18.150;2023-09-18T04:08:48;99673.19;;;18.02;82.76
54592;BME280;40488;48.558;18.150;2023-09-18T04:11:17;99660.47;;;17.96;83.06
54592;BME280;40488;48.558;18.150;2023-09-18T04:13:47;99670.66;;;18.01;83.16
54592;BME280;40488;48.558;18.150;2023-09-18T04:16:16;99665.50;;;18.01;83.12
54592;BME280;40488;48.558;18.150;2023-09-18T04:18:46;99666.22;;;18.04;83.08
54592;BME280;40488;48.558;18.150;2023-09-18T04:21:16;99660.13;;;18.07;83.00
54592;BME280;40488;48.558;18.150;2023-09-18T04:23:45;99651.59;;;18.05;83.03
54592;BME280;40488;48.558;18.150;2023-09-18T04:26:13;99658.53;;;18.03;83.23
54592;BME280;40488;48.558;18.150;2023-09-18T04:28:43;99656.84;;;18.02;82.82
54592;BME280;40488;48.558;18.150;2023-09-18T04:31:13;99656.19;;;17.95;83.24
54592;BME280;40488;48.558;18.150;2023-09-18T04:33:42;99655.31;;;17.96;83.11
54592;BME280;40488;48.558;18.150;2023-09-18T04:36:15;99654.53;;;17.94;83.28
54592;BME280;40488;48.558;18.150;2023-09-18T04:38:44;99656.97;;;17.99;83.34
54592;BME280;40488;48.558;18.150;2023-09-18T04:41:13;99653.28;;;18.06;83.39
54592;BME280;40488;48.558;18.150;2023-09-18T04:43:43;99653.28;;;18.06;83.19
54592;BME280;40488;48.558;18.150;2023-09-18T04:46:12;99653.19;;;18.09;83.23
54592;BME280;40488;48.558;18.150;2023-09-18T04:48:41;99648.84;;;18.09;83.15
54592;BME280;40488;48.558;18.150;2023-09-18T04:51:10;99643.69;;;18.09;83.13
54592;BME280;40488;48.558;18.150;2023-09-18T04:53:41;99636.09;;;18.05;83.41
54592;BME280;40488;48.558;18.150;2023-09-18T04:56:10;99636.72;;;18.12;83.46
54592;BME280;40488;48.558;18.150;2023-09-18T04:58:39;99625.28;;;18.20;83.50
54592;BME280;40488;48.558;18.150;2023-09-18T05:01:08;99620.81;;;18.24;83.46
54592;BME280;40488;48.558;18.150;2023-09-18T05:03:40;99624.97;;;18.29;83.20
54592;BME280;40488;48.558;18.150;2023-09-18T05:06:10;99630.13;;;18.29;83.12
54592;BME280;40488;48.558;18.150;2023-09-18T05:08:41;99626.75;;;18.27;83.23
54592;BME280;40488;48.558;18.150;2023-09-18T05:11:10;99624.00;;;18.32;83.26
54592;BME280;40488;48.558;18.150;2023-09-18T05:13:41;99630.03;;;18.32;83.16
54592;BME280;40488;48.558;18.150;2023-09-18T05:16:11;99629.94;;;18.35;83.16
54592;BME280;40488;48.558;18.150;2023-09-18T05:18:40;99635.00;;;18.38;83.38
54592;BME280;40488;48.558;18.150;2023-09-18T05:21:10;99632.41;;;18.38;83.40
54592;BME280;40488;48.558;18.150;2023-09-18T05:23:38;99640.78;;;18.46;83.26
54592;BME280;40488;48.558;18.150;2023-09-18T05:26:09;99633.81;;;18.48;83.23
54592;BME280;40488;48.558;18.150;2023-09-18T05:28:38;99631.16;;;18.51;83.35
54592;BME280;40488;48.558;18.150;2023-09-18T05:31:07;99633.63;;;18.54;83.43
54592;BME280;40488;48.558;18.150;2023-09-18T05:33:36;99635.91;;;18.63;83.51
54592;BME280;40488;48.558;18.150;2023-09-18T05:36:05;99632.09;;;18.73;83.43
54592;BME280;40488;48.558;18.150;2023-09-18T05:38:35;99620.69;;;18.79;83.33
54592;BME280;40488;48.558;18.150;2023-09-18T05:41:03;99620.53;;;18.84;83.13
54592;BME280;40488;48.558;18.150;2023-09-18T05:43:35;99620.91;;;18.98;83.06
54592;BME280;40488;48.558;18.150;2023-09-18T05:46:03;99617.22;;;19.03;83.09
54592;BME280;40488;48.558;18.150;2023-09-18T05:48:32;99616.97;;;19.11;83.16
54592;BME280;40488;48.558;18.150;2023-09-18T05:51:01;99618.31;;;19.21;83.16
54592;BME280;40488;48.558;18.150;2023-09-18T05:53:31;99619.78;;;19.28;82.99
54592;BME280;40488;48.558;18.150;2023-09-18T05:56:02;99605.72;;;19.35;82.69
54592;BME280;40488;48.558;18.150;2023-09-18T05:58:32;99595.78;;;19.48;83.01
54592;BME280;40488;48.558;18.150;2023-09-18T06:01:04;99597.94;;;19.58;82.92
54592;BME280;40488;48.558;18.150;2023-09-18T06:03:33;99601.00;;;19.68;82.92
54592;BME280;40488;48.558;18.150;2023-09-18T06:06:03;99609.25;;;19.77;82.75
54592;BME280;40488;48.558;18.150;2023-09-18T06:08:32;99608.06;;;19.86;82.54
54592;BME280;40488;48.558;18.150;2023-09-18T06:11:01;99605.97;;;19.95;82.45
54592;BME280;40488;48.558;18.150;2023-09-18T06:13:30;99608.94;;;20.06;82.13
54592;BME280;40488;48.558;18.150;2023-09-18T06:16:00;99603.34;;;20.17;82.04
54592;BME280;40488;48.558;18.150;2023-09-18T06:18:36;99601.19;;;20.28;81.88
54592;BME280;40488;48.558;18.150;2023-09-18T06:21:05;99598.03;;;20.42;81.52
54592;BME280;40488;48.558;18.150;2023-09-18T06:23:34;99596.59;;;20.55;81.80
54592;BME280;40488;48.558;18.150;2023-09-18T06:26:03;99587.31;;;20.69;81.26
54592;BME280;40488;48.558;18.150;2023-09-18T06:28:32;99596.19;;;20.84;81.28
54592;BME280;40488;48.558;18.150;2023-09-18T06:31:01;99592.13;;;20.97;80.80
54592;BME280;40488;48.558;18.150;2023-09-18T06:33:30;99589.09;;;21.08;80.36
54592;BME280;40488;48.558;18.150;2023-09-18T06:36:00;99591.47;;;21.12;79.95
54592;BME280;40488;48.558;18.150;2023-09-18T06:38:29;99590.03;;;21.25;79.68
54592;BME280;40488;48.558;18.150;2023-09-18T06:40:58;99591.13;;;21.38;79.56
54592;BME280;40488;48.558;18.150;2023-09-18T06:43:27;99586.72;;;21.59;78.89
54592;BME280;40488;48.558;18.150;2023-09-18T06:45:55;99583.31;;;21.76;77.23
54592;BME280;40488;48.558;18.150;2023-09-18T06:48:25;99585.34;;;21.88;76.33
54592;BME280;40488;48.558;18.150;2023-09-18T06:50:55;99589.03;;;22.01;75.41
54592;BME280;40488;48.558;18.150;2023-09-18T06:53:25;99595.31;;;22.14;74.67
54592;BME280;40488;48.558;18.150;2023-09-18T06:55:54;99586.53;;;22.34;73.68
54592;BME280;40488;48.558;18.150;2023-09-18T06:58:24;99587.59;;;22.47;73.00
54592;BME280;40488;48.558;18.150;2023-09-18T07:00:52;99591.06;;;22.64;72.26
54592;BME280;40488;48.558;18.150;2023-09-18T07:03:21;99576.66;;;22.75;72.00
54592;BME280;40488;48.558;18.150;2023-09-18T07:05:50;99576.31;;;22.81;72.03
54592;BME280;40488;48.558;18.150;2023-09-18T07:08:19;99575.69;;;22.93;72.01
54592;BME280;40488;48.558;18.150;2023-09-18T07:10:52;99569.81;;;23.05;70.90
54592;BME280;40488;48.558;18.150;2023-09-18T07:13:21;99579.75;;;23.14;69.82
54592;BME280;40488;48.558;18.150;2023-09-18T07:15:49;99573.38;;;23.19;69.41
54592;BME280;40488;48.558;18.150;2023-09-18T07:18:18;99571.88;;;23.31;69.30
54592;BME280;40488;48.558;18.150;2023-09-18T07:20:47;99569.63;;;23.41;68.51
54592;BME280;40488;48.558;18.150;2023-09-18T07:23:16;99563.25;;;23.46;67.86
54592;BME280;40488;48.558;18.150;2023-09-18T07:25:47;99567.94;;;23.55;67.59
54592;BME280;40488;48.558;18.150;2023-09-18T07:28:17;99556.59;;;23.56;66.97
54592;BME280;40488;48.558;18.150;2023-09-18T07:30:47;99548.44;;;23.62;66.71
54592;BME280;40488;48.558;18.150;2023-09-18T07:33:16;99555.81;;;23.70;66.51
54592;BME280;40488;48.558;18.150;2023-09-18T07:35:48;99546.00;;;23.75;66.05
54592;BME280;40488;48.558;18.150;2023-09-18T07:38:19;99546.31;;;23.84;65.68
54592;BME280;40488;48.558;18.150;2023-09-18T07:40:48;99541.56;;;23.91;65.40
54592;BME280;40488;48.558;18.150;2023-09-18T07:43:19;99549.59;;;24.02;64.75
54592;BME280;40488;48.558;18.150;2023-09-18T07:45:49;99546.19;;;24.02;64.57
54592;BME280;40488;48.558;18.150;2023-09-18T07:48:18;99544.59;;;23.99;64.23
54592;BME280;40488;48.558;18.150;2023-09-18T07:50:48;99546.25;;;24.00;64.11
54592;BME280;40488;48.558;18.150;2023-09-18T07:53:19;99538.34;;;24.02;64.24
54592;BME280;40488;48.558;18.150;2023-09-18T07:55:48;99551.13;;;24.06;64.08
54592;BME280;40488;48.558;18.150;2023-09-18T07:58:19;99542.63;;;24.18;63.97
54592;BME280;40488;48.558;18.150;2023-09-18T08:00:48;99545.53;;;24.28;63.48
54592;BME280;40488;48.558;18.150;2023-09-18T08:03:21;99552.06;;;24.35;63.35
54592;BME280;40488;48.558;18.150;2023-09-18T08:05:51;99555.25;;;24.40;62.74
54592;BME280;40488;48.558;18.150;2023-09-18T08:08:21;99544.59;;;24.43;62.68
54592;BME280;40488;48.558;18.150;2023-09-18T08:10:51;99542.94;;;24.56;62.52
54592;BME280;40488;48.558;18.150;2023-09-18T08:13:22;99543.13;;;24.67;61.92
54592;BME280;40488;48.558;18.150;2023-09-18T08:15:51;99541.09;;;24.72;61.55
54592;BME280;40488;48.558;18.150;2023-09-18T08:18:21;99552.38;;;24.73;61.09
54592;BME280;40488;48.558;18.150;2023-09-18T08:20:54;99565.31;;;24.74;61.14
54592;BME280;40488;48.558;18.150;2023-09-18T08:23:25;99557.00;;;24.83;61.19
54592;BME280;40488;48.558;18.150;2023-09-18T08:25:54;99562.78;;;24.88;60.89
54592;BME280;40488;48.558;18.150;2023-09-18T08:28:26;99565.38;;;25.02;60.48
54592;BME280;40488;48.558;18.150;2023-09-18T08:30:55;99559.59;;;25.11;60.11
54592;BME280;40488;48.558;18.150;2023-09-18T08:33:26;99558.16;;;25.20;60.29
54592;BME280;40488;48.558;18.150;2023-09-18T08:35:54;99550.44;;;25.18;60.15
54592;BME280;40488;48.558;18.150;2023-09-18T08:38:23;99559.75;;;25.22;59.68
54592;BME280;40488;48.558;18.150;2023-09-18T08:40:53;99559.38;;;25.28;59.76
54592;BME280;40488;48.558;18.150;2023-09-18T08:43:25;99554.47;;;25.37;59.83
54592;BME280;40488;48.558;18.150;2023-09-18T08:45:56;99546.09;;;25.31;59.59
54592;BME280;40488;48.558;18.150;2023-09-18T08:48:29;99546.34;;;25.41;59.64
54592;BME280;40488;48.558;18.150;2023-09-18T08:51:03;99556.28;;;25.50;58.72
54592;BME280;40488;48.558;18.150;2023-09-18T08:53:35;99562.81;;;25.70;58.77
54592;BME280;40488;48.558;18.150;2023-09-18T08:56:06;99559.53;;;25.80;58.16
54592;BME280;40488;48.558;18.150;2023-09-18T08:58:38;99567.50;;;25.91;58.37
54592;BME280;40488;48.558;18.150;2023-09-18T09:01:11;99570.47;;;26.00;57.58
54592;BME280;40488;48.558;18.150;2023-09-18T09:03:41;99561.00;;;26.11;57.79
54592;BME280;40488;48.558;18.150;2023-09-18T09:06:11;99550.97;;;25.91;57.18
54592;BME280;40488;48.558;18.150;2023-09-18T09:08:40;99557.88;;;25.92;57.35
54592;BME280;40488;48.558;18.150;2023-09-18T09:11:09;99547.22;;;25.95;57.39
54592;BME280;40488;48.558;18.150;2023-09-18T09:13:40;99537.44;;;26.11;57.00
54592;BME280;40488;48.558;18.150;2023-09-18T09:16:13;99540.19;;;26.22;56.88
54592;BME280;40488;48.558;18.150;2023-09-18T09:18:48;99535.38;;;26.29;56.53
54592;BME280;40488;48.558;18.150;2023-09-18T09:21:19;99537.28;;;26.27;56.51
54592;BME280;40488;48.558;18.150;2023-09-18T09:23:49;99533.47;;;26.18;56.39
54592;BME280;40488;48.558;18.150;2023-09-18T09:26:22;99534.19;;;26.08;56.70
54592;BME280;40488;48.558;18.150;2023-09-18T09:28:53;99534.72;;;26.25;56.69
54592;BME280;40488;48.558;18.150;2023-09-18T09:31:24;99523.34;;;26.39;55.95
54592;BME280;40488;48.558;18.150;2023-09-18T09:33:53;99514.13;;;26.33;56.27
54592;BME280;40488;48.558;18.150;2023-09-18T09:36:23;99515.69;;;26.36;56.38
54592;BME280;40488;48.558;18.150;2023-09-18T09:38:55;99527.31;;;26.44;56.40
54592;BME280;40488;48.558;18.150;2023-09-18T09:41:25;99529.72;;;26.47;56.15
54592;BME280;40488;48.558;18.150;2023-09-18T09:43:57;99525.22;;;26.49;56.00
54592;BME280;40488;48.558;18.150;2023-09-18T09:46:26;99534.75;;;26.50;55.80
54592;BME280;40488;48.558;18.150;2023-09-18T09:49:00;99536.66;;;26.48;56.29
54592;BME280;40488;48.558;18.150;2023-09-18T09:51:29;99532.06;;;26.39;55.62
54592;BME280;40488;48.558;18.150;2023-09-18T09:53:59;99524.25;;;26.25;55.50
54592;BME280;40488;48.558;18.150;2023-09-18T09:59:10;99517.50;;;26.09;56.15
54592;BME280;40488;48.558;18.150;2023-09-18T10:01:40;99524.88;;;26.16;56.09
54592;BME280;40488;48.558;18.150;2023-09-18T10:04:09;99510.44;;;26.23;56.22
54592;BME280;40488;48.558;18.150;2023-09-18T10:06:41;99518.44;;;26.34;56.03
54592;BME280;40488;48.558;18.150;2023-09-18T10:09:12;99514.66;;;26.38;55.73
54592;BME280;40488;48.558;18.150;2023-09-18T10:11:45;99500.00;;;26.48;55.45
54592;BME280;40488;48.558;18.150;2023-09-18T10:14:19;99497.34;;;26.61;55.52
54592;BME280;40488;48.558;18.150;2023-09-18T10:16:53;99496.09;;;26.67;55.02
54592;BME280;40488;48.558;18.150;2023-09-18T10:19:27;99486.13;;;26.72;55.05
54592;BME280;40488;48.558;18.150;2023-09-18T10:22:05;99485.44;;;26.82;54.95
54592;BME280;40488;48.558;18.150;2023-09-18T10:24:40;99488.00;;;26.95;54.72
54592;BME280;40488;48.558;18.150;2023-09-18T10:27:12;99487.38;;;27.04;53.88
54592;BME280;40488;48.558;18.150;2023-09-18T10:29:43;99495.75;;;27.09;53.65
54592;BME280;40488;48.558;18.150;2023-09-18T10:32:16;99492.44;;;26.94;53.57
54592;BME280;40488;48.558;18.150;2023-09-18T10:34:48;99486.38;;;26.81;54.13
54592;BME280;40488;48.558;18.150;2023-09-18T10:37:18;99488.50;;;27.00;53.97
54592;BME280;40488;48.558;18.150;2023-09-18T10:39:49;99487.88;;;27.09;53.67
54592;BME280;40488;48.558;18.150;2023-09-18T10:42:21;99481.25;;;27.16;53.50
54592;BME280;40488;48.558;18.150;2023-09-18T10:44:53;99478.47;;;27.30;53.39
54592;BME280;40488;48.558;18.150;2023-09-18T10:47:23;99481.09;;;27.30;53.27
54592;BME280;40488;48.558;18.150;2023-09-18T10:49:52;99487.00;;;27.21;52.96
54592;BME280;40488;48.558;18.150;2023-09-18T10:52:21;99480.75;;;27.11;53.32
54592;BME280;40488;48.558;18.150;2023-09-18T10:54:50;99477.81;;;27.03;53.33
54592;BME280;40488;48.558;18.150;2023-09-18T10:57:19;99475.16;;;27.15;53.80
54592;BME280;40488;48.558;18.150;2023-09-18T10:59:56;99470.94;;;27.25;53.29
54592;BME280;40488;48.558;18.150;2023-09-18T11:02:27;99464.53;;;27.30;53.28
54592;BME280;40488;48.558;18.150;2023-09-18T11:04:57;99456.88;;;27.26;52.96
54592;BME280;40488;48.558;18.150;2023-09-18T11:07:25;99475.78;;;27.19;52.87
54592;BME280;40488;48.558;18.150;2023-09-18T11:09:54;99468.69;;;27.08;53.42
54592;BME280;40488;48.558;18.150;2023-09-18T11:12:42;99469.09;;;27.15;53.80
54592;BME280;40488;48.558;18.150;2023-09-18T11:15:25;99462.75;;;27.30;53.06
54592;BME280;40488;48.558;18.150;2023-09-18T11:17:59;99459.88;;;27.33;53.30
54592;BME280;40488;48.558;18.150;2023-09-18T11:20:36;99452.84;;;27.46;53.12
54592;BME280;40488;48.558;18.150;2023-09-18T11:23:16;99440.88;;;27.66;52.43
54592;BME280;40488;48.558;18.150;2023-09-18T11:25:46;99442.66;;;27.76;51.77
54592;BME280;40488;48.558;18.150;2023-09-18T11:28:22;99437.41;;;27.65;51.86
54592;BME280;40488;48.558;18.150;2023-09-18T11:30:54;99440.03;;;27.76;51.98
54592;BME280;40488;48.558;18.150;2023-09-18T11:33:34;99426.00;;;27.77;51.62
54592;BME280;40488;48.558;18.150;2023-09-18T11:36:06;99421.81;;;27.75;51.18
54592;BME280;40488;48.558;18.150;2023-09-18T11:38:36;99420.22;;;27.61;51.62
54592;BME280;40488;48.558;18.150;2023-09-18T11:41:26;99435.66;;;27.42;51.91
54592;BME280;40488;48.558;18.150;2023-09-18T11:46:53;99444.91;;;27.35;52.28
54592;BME280;40488;48.558;18.150;2023-09-18T11:49:24;99427.69;;;27.31;52.33
54592;BME280;40488;48.558;18.150;2023-09-18T11:51:54;99423.06;;;27.47;52.38
54592;BME280;40488;48.558;18.150;2023-09-18T11:54:23;99419.25;;;27.51;51.96
54592;BME280;40488;48.558;18.150;2023-09-18T11:56:52;99413.38;;;27.48;51.70
54592;BME280;40488;48.558;18.150;2023-09-18T11:59:34;99416.34;;;27.43;52.23
54592;BME280;40488;48.558;18.150;2023-09-18T12:02:06;99397.56;;;27.60;51.73
54592;BME280;40488;48.558;18.150;2023-09-18T12:04:36;99407.13;;;27.72;51.75
54592;BME280;40488;48.558;18.150;2023-09-18T12:07:07;99405.00;;;27.77;51.22
54592;BME280;40488;48.558;18.150;2023-09-18T12:09:39;99397.13;;;27.77;51.08
54592;BME280;40488;48.558;18.150;2023-09-18T12:12:08;99390.25;;;27.87;51.19
54592;BME280;40488;48.558;18.150;2023-09-18T12:14:38;99397.09;;;28.01;50.70
54592;BME280;40488;48.558;18.150;2023-09-18T12:17:14;99391.22;;;27.98;50.40
54592;BME280;40488;48.558;18.150;2023-09-18T12:19:52;99383.53;;;27.83;50.56
54592;BME280;40488;48.558;18.150;2023-09-18T12:22:25;99392.31;;;27.60;51.20
54592;BME280;40488;48.558;18.150;2023-09-18T12:25:09;99383.44;;;27.39;51.73
54592;BME280;40488;48.558;18.150;2023-09-18T12:27:43;99388.34;;;27.20;51.86
54592;BME280;40488;48.558;18.150;2023-09-18T12:30:13;99387.00;;;26.91;52.42
54592;BME280;40488;48.558;18.150;2023-09-18T12:32:51;99376.22;;;26.83;52.60
54592;BME280;40488;48.558;18.150;2023-09-18T12:35:21;99375.09;;;26.87;52.87
54592;BME280;40488;48.558;18.150;2023-09-18T12:37:50;99366.50;;;26.85;52.95
54592;BME280;40488;48.558;18.150;2023-09-18T12:40:25;99370.69;;;26.75;52.69
54592;BME280;40488;48.558;18.150;2023-09-18T12:42:56;99372.59;;;26.73;52.96
54592;BME280;40488;48.558;18.150;2023-09-18T12:45:26;99371.84;;;26.71;53.25
54592;BME280;40488;48.558;18.150;2023-09-18T12:47:59;99366.53;;;26.59;53.42
54592;BME280;40488;48.558;18.150;2023-09-18T12:50:28;99361.94;;;26.63;53.90
54592;BME280;40488;48.558;18.150;2023-09-18T12:53:09;99365.28;;;26.78;53.18
54592;BME280;40488;48.558;18.150;2023-09-18T12:55:38;99353.91;;;26.90;53.12
54592;BME280;40488;48.558;18.150;2023-09-18T12:58:10;99351.13;;;27.04;52.60
54592;BME280;40488;48.558;18.150;2023-09-18T13:00:48;99360.91;;;27.13;52.35
54592;BME280;40488;48.558;18.150;2023-09-18T13:03:19;99355.88;;;27.10;52.48
54592;BME280;40488;48.558;18.150;2023-09-18T13:05:49;99351.63;;;27.09;52.61
54592;BME280;40488;48.558;18.150;2023-09-18T13:08:22;99342.50;;;27.25;51.93
54592;BME280;40488;48.558;18.150;2023-09-18T13:10:52;99338.53;;;27.44;51.76
54592;BME280;40488;48.558;18.150;2023-09-18T13:13:22;99332.97;;;27.70;51.63